Impacts TAF Board
For situational awareness. Not to be used for flight planning purposes.
IDs:

KPDX - Portland Intl Arpt, OR, US

Issued at 2043 UTC 08 Aug 2020
Updated at 2151 UTC 08 Aug 2020
Potential Impact None Slight Moderate High
Time2053Z 08/22Z 08/23Z 09/00Z 09/01Z 09/02Z 09/03Z 09/04Z 09/05Z 09/06Z 09/07Z 09/08Z 09/09Z 09/10Z>>
Type OBS PRVL PRVL PRVL PRVL PRVL PRVL PRVL PRVL PRVL PRVL PRVL PRVL PRVL
VIS 10 >6 >6 >6 >6 >6 >6 >6 >6 >6 >6 >6 >6 >6
CIG 49 50 50 50 -- -- -- -- -- -- -- -- -- --
Cover BKN BKN BKN BKN FEW FEW FEW FEW FEW FEW FEW FEW FEW FEW
FltCat VFR VFR VFR VFR VFR VFR VFR VFR VFR VFR VFR VFR VFR VFR
WX -- -- -- -- -- -- -- -- -- -- -- -- -- --
WDir 320 330 330 330 330 330 330 330 330 330 330 330 330 330
WSpd 5 8 8 8 11 11 11 11 11 11 11 11 11 11
WGst -- 15 15 15 18 18 18 18 18 18 18 18 18 18
Raw TAF
KPDX 082043Z 0821/0918 33008G15KT P6SM SCT035 BKN050
  FM090100 33011G18KT P6SM FEW250
  FM091200 34005KT P6SM SCT250
  FM091400 34005KT P6SM SCT090
  FM091700 VRB04KT P6SM FEW250


Raw METAR
KPDX 082053Z 32005KT 10SM BKN049 BKN060 BKN250 23/11 A3018 RMK AO2 SLP218 T02280106 56007
KPDX 081953Z 33008G15KT 10SM FEW038 BKN055 BKN250 23/11 A3018 RMK AO2 SLP220 T02280111
KPDX 081853Z 30005KT 10SM FEW035 BKN050 22/13 A3019 RMK AO2 SLP222 T02170128

METAR Board
Radar Display
Forecast Discussion
For situational awareness. Not to be used for flight planning purposes.